sensor_id;sensor_type;location;lat;lon;timestamp;P1;durP1;ratioP1;P2;durP2;ratioP2
76094;SDS011;64821;13.710;100.604;2024-02-26T00:00:25;10.85;;;7.70;;
76094;SDS011;64821;13.710;100.604;2024-02-26T00:01:31;10.43;;;7.50;;
76094;SDS011;64821;13.710;100.604;2024-02-26T00:02:37;11.05;;;8.07;;
76094;SDS011;64821;13.710;100.604;2024-02-26T00:03:41;12.47;;;9.37;;
76094;SDS011;64821;13.710;100.604;2024-02-26T00:04:45;11.30;;;7.72;;
76094;SDS011;64821;13.710;100.604;2024-02-26T00:05:50;12.55;;;7.97;;
76094;SDS011;64821;13.710;100.604;2024-02-26T00:06:54;10.20;;;7.45;;
76094;SDS011;64821;13.710;100.604;2024-02-26T00:07:58;11.43;;;7.72;;
76094;SDS011;64821;13.710;100.604;2024-02-26T00:09:06;10.93;;;7.97;;
76094;SDS011;64821;13.710;100.604;2024-02-26T00:10:11;11.57;;;7.78;;
76094;SDS011;64821;13.710;100.604;2024-02-26T00:11:15;13.77;;;8.40;;
76094;SDS011;64821;13.710;100.604;2024-02-26T00:12:19;11.77;;;8.63;;
76094;SDS011;64821;13.710;100.604;2024-02-26T00:13:23;10.93;;;7.85;;
76094;SDS011;64821;13.710;100.604;2024-02-26T00:14:27;11.37;;;7.87;;
76094;SDS011;64821;13.710;100.604;2024-02-26T00:15:31;11.15;;;8.00;;
76094;SDS011;64821;13.710;100.604;2024-02-26T00:16:35;12.07;;;8.25;;
76094;SDS011;64821;13.710;100.604;2024-02-26T00:17:40;11.88;;;7.80;;
76094;SDS011;64821;13.710;100.604;2024-02-26T00:18:45;13.75;;;9.45;;
76094;SDS011;64821;13.710;100.604;2024-02-26T00:19:51;11.87;;;8.13;;
76094;SDS011;64821;13.710;100.604;2024-02-26T00:20:56;12.85;;;8.63;;
76094;SDS011;64821;13.710;100.604;2024-02-26T00:22:00;10.57;;;7.65;;
76094;SDS011;64821;13.710;100.604;2024-02-26T00:23:04;11.63;;;8.55;;
76094;SDS011;64821;13.710;100.604;2024-02-26T00:24:08;12.73;;;8.48;;
76094;SDS011;64821;13.710;100.604;2024-02-26T00:25:12;13.50;;;9.10;;
76094;SDS011;64821;13.710;100.604;2024-02-26T00:26:16;11.48;;;8.35;;
76094;SDS011;64821;13.710;100.604;2024-02-26T00:27:20;11.98;;;8.50;;
76094;SDS011;64821;13.710;100.604;2024-02-26T00:28:24;12.00;;;7.82;;
76094;SDS011;64821;13.710;100.604;2024-02-26T00:29:29;13.05;;;8.73;;
76094;SDS011;64821;13.710;100.604;2024-02-26T00:30:33;11.47;;;8.40;;
76094;SDS011;64821;13.710;100.604;2024-02-26T00:31:37;13.20;;;8.90;;
76094;SDS011;64821;13.710;100.604;2024-02-26T00:32:42;13.35;;;8.32;;
76094;SDS011;64821;13.710;100.604;2024-02-26T00:33:47;11.27;;;8.38;;
76094;SDS011;64821;13.710;100.604;2024-02-26T00:34:51;12.75;;;8.00;;
76094;SDS011;64821;13.710;100.604;2024-02-26T00:35:55;12.33;;;8.47;;
76094;SDS011;64821;13.710;100.604;2024-02-26T00:36:59;10.93;;;7.63;;
76094;SDS011;64821;13.710;100.604;2024-02-26T00:38:04;12.68;;;8.10;;
76094;SDS011;64821;13.710;100.604;2024-02-26T00:39:09;11.80;;;8.63;;
76094;SDS011;64821;13.710;100.604;2024-02-26T00:40:14;13.50;;;8.15;;
76094;SDS011;64821;13.710;100.604;2024-02-26T00:41:18;12.10;;;8.27;;
76094;SDS011;64821;13.710;100.604;2024-02-26T00:42:22;11.57;;;7.93;;
76094;SDS011;64821;13.710;100.604;2024-02-26T00:43:27;10.93;;;8.05;;
76094;SDS011;64821;13.710;100.604;2024-02-26T00:44:31;10.23;;;7.93;;
76094;SDS011;64821;13.710;100.604;2024-02-26T00:45:35;11.73;;;8.48;;
76094;SDS011;64821;13.710;100.604;2024-02-26T00:46:39;12.87;;;8.80;;
76094;SDS011;64821;13.710;100.604;2024-02-26T00:47:45;11.40;;;8.48;;
76094;SDS011;64821;13.710;100.604;2024-02-26T00:48:49;13.90;;;9.77;;
76094;SDS011;64821;13.710;100.604;2024-02-26T00:49:53;12.80;;;8.88;;
76094;SDS011;64821;13.710;100.604;2024-02-26T00:50:58;12.70;;;9.13;;
76094;SDS011;64821;13.710;100.604;2024-02-26T00:52:02;13.47;;;9.07;;
76094;SDS011;64821;13.710;100.604;2024-02-26T00:53:06;12.32;;;8.70;;
76094;SDS011;64821;13.710;100.604;2024-02-26T00:54:10;13.45;;;10.02;;
76094;SDS011;64821;13.710;100.604;2024-02-26T00:55:15;13.75;;;9.13;;
76094;SDS011;64821;13.710;100.604;2024-02-26T00:56:19;13.02;;;9.27;;
76094;SDS011;64821;13.710;100.604;2024-02-26T00:57:23;14.33;;;9.03;;
76094;SDS011;64821;13.710;100.604;2024-02-26T00:58:28;13.65;;;9.38;;
76094;SDS011;64821;13.710;100.604;2024-02-26T00:59:32;12.10;;;8.60;;
76094;SDS011;64821;13.710;100.604;2024-02-26T01:00:36;13.55;;;9.25;;
76094;SDS011;64821;13.710;100.604;2024-02-26T01:01:40;13.60;;;9.05;;
76094;SDS011;64821;13.710;100.604;2024-02-26T01:02:46;12.00;;;9.23;;
76094;SDS011;64821;13.710;100.604;2024-02-26T01:03:50;12.30;;;8.55;;
76094;SDS011;64821;13.710;100.604;2024-02-26T01:04:54;17.10;;;9.40;;
76094;SDS011;64821;13.710;100.604;2024-02-26T01:05:58;13.48;;;9.40;;
76094;SDS011;64821;13.710;100.604;2024-02-26T01:07:02;13.18;;;9.20;;
76094;SDS011;64821;13.710;100.604;2024-02-26T01:08:07;13.40;;;9.17;;
76094;SDS011;64821;13.710;100.604;2024-02-26T01:09:11;14.60;;;10.20;;
76094;SDS011;64821;13.710;100.604;2024-02-26T01:10:15;14.02;;;9.55;;
76094;SDS011;64821;13.710;100.604;2024-02-26T01:11:19;13.25;;;9.85;;
76094;SDS011;64821;13.710;100.604;2024-02-26T01:12:24;13.65;;;8.73;;
76094;SDS011;64821;13.710;100.604;2024-02-26T01:13:28;13.30;;;8.70;;
76094;SDS011;64821;13.710;100.604;2024-02-26T01:14:33;11.98;;;8.48;;
76094;SDS011;64821;13.710;100.604;2024-02-26T01:15:37;14.68;;;10.15;;
76094;SDS011;64821;13.710;100.604;2024-02-26T01:16:41;16.88;;;11.05;;
76094;SDS011;64821;13.710;100.604;2024-02-26T01:17:46;14.18;;;9.23;;
76094;SDS011;64821;13.710;100.604;2024-02-26T01:18:51;11.87;;;8.57;;
76094;SDS011;64821;13.710;100.604;2024-02-26T01:19:56;16.77;;;11.60;;
76094;SDS011;64821;13.710;100.604;2024-02-26T01:21:00;12.88;;;9.75;;
76094;SDS011;64821;13.710;100.604;2024-02-26T01:22:04;16.00;;;10.65;;
76094;SDS011;64821;13.710;100.604;2024-02-26T01:23:16;16.48;;;10.40;;
76094;SDS011;64821;13.710;100.604;2024-02-26T01:24:20;15.30;;;10.40;;
76094;SDS011;64821;13.710;100.604;2024-02-26T01:25:27;12.13;;;9.15;;
76094;SDS011;64821;13.710;100.604;2024-02-26T01:26:31;13.90;;;9.18;;
76094;SDS011;64821;13.710;100.604;2024-02-26T01:27:35;12.70;;;9.18;;
76094;SDS011;64821;13.710;100.604;2024-02-26T01:28:39;12.25;;;9.13;;
76094;SDS011;64821;13.710;100.604;2024-02-26T01:29:43;15.20;;;9.63;;
76094;SDS011;64821;13.710;100.604;2024-02-26T01:30:48;11.98;;;8.77;;
76094;SDS011;64821;13.710;100.604;2024-02-26T01:31:52;12.95;;;9.43;;
76094;SDS011;64821;13.710;100.604;2024-02-26T01:32:57;13.32;;;9.25;;
76094;SDS011;64821;13.710;100.604;2024-02-26T01:34:02;11.85;;;9.13;;
76094;SDS011;64821;13.710;100.604;2024-02-26T01:35:09;12.13;;;8.37;;
76094;SDS011;64821;13.710;100.604;2024-02-26T01:36:14;11.90;;;8.68;;
76094;SDS011;64821;13.710;100.604;2024-02-26T01:37:18;14.85;;;9.40;;
76094;SDS011;64821;13.710;100.604;2024-02-26T01:38:22;12.25;;;9.00;;
76094;SDS011;64821;13.710;100.604;2024-02-26T01:39:27;13.00;;;9.48;;
76094;SDS011;64821;13.710;100.604;2024-02-26T01:40:31;12.30;;;10.03;;
76094;SDS011;64821;13.710;100.604;2024-02-26T01:41:35;12.90;;;9.70;;
76094;SDS011;64821;13.710;100.604;2024-02-26T01:42:39;12.05;;;9.35;;
76094;SDS011;64821;13.710;100.604;2024-02-26T01:43:44;12.85;;;8.73;;
76094;SDS011;64821;13.710;100.604;2024-02-26T01:44:48;13.80;;;9.10;;
76094;SDS011;64821;13.710;100.604;2024-02-26T01:45:52;12.37;;;9.17;;
76094;SDS011;64821;13.710;100.604;2024-02-26T01:46:56;13.98;;;10.32;;
76094;SDS011;64821;13.710;100.604;2024-02-26T01:48:02;12.90;;;9.30;;
76094;SDS011;64821;13.710;100.604;2024-02-26T01:49:06;13.15;;;8.82;;
76094;SDS011;64821;13.710;100.604;2024-02-26T01:50:12;12.52;;;9.35;;
76094;SDS011;64821;13.710;100.604;2024-02-26T01:51:17;14.00;;;9.73;;
76094;SDS011;64821;13.710;100.604;2024-02-26T01:52:21;13.20;;;9.13;;
76094;SDS011;64821;13.710;100.604;2024-02-26T01:53:26;13.73;;;10.05;;
76094;SDS011;64821;13.710;100.604;2024-02-26T01:54:30;16.20;;;11.00;;
76094;SDS011;64821;13.710;100.604;2024-02-26T01:55:36;11.48;;;8.88;;
76094;SDS011;64821;13.710;100.604;2024-02-26T01:56:40;13.13;;;9.03;;
76094;SDS011;64821;13.710;100.604;2024-02-26T01:57:45;13.23;;;9.20;;
76094;SDS011;64821;13.710;100.604;2024-02-26T01:58:51;12.88;;;9.27;;
76094;SDS011;64821;13.710;100.604;2024-02-26T01:59:55;14.02;;;9.77;;
76094;SDS011;64821;13.710;100.604;2024-02-26T02:01:00;12.25;;;9.68;;
76094;SDS011;64821;13.710;100.604;2024-02-26T02:02:06;16.23;;;11.90;;
76094;SDS011;64821;13.710;100.604;2024-02-26T02:03:15;13.27;;;9.57;;
76094;SDS011;64821;13.710;100.604;2024-02-26T02:04:19;14.77;;;11.10;;
76094;SDS011;64821;13.710;100.604;2024-02-26T02:05:24;13.98;;;10.48;;
76094;SDS011;64821;13.710;100.604;2024-02-26T02:06:28;13.40;;;9.98;;
76094;SDS011;64821;13.710;100.604;2024-02-26T02:07:33;12.63;;;9.03;;
76094;SDS011;64821;13.710;100.604;2024-02-26T02:08:38;14.52;;;10.15;;
76094;SDS011;64821;13.710;100.604;2024-02-26T02:09:43;13.07;;;9.90;;
76094;SDS011;64821;13.710;100.604;2024-02-26T02:10:47;11.98;;;9.18;;
76094;SDS011;64821;13.710;100.604;2024-02-26T02:11:52;12.70;;;9.32;;
76094;SDS011;64821;13.710;100.604;2024-02-26T02:12:56;14.00;;;9.67;;
76094;SDS011;64821;13.710;100.604;2024-02-26T02:14:00;11.63;;;8.95;;
76094;SDS011;64821;13.710;100.604;2024-02-26T02:15:05;12.50;;;9.85;;
76094;SDS011;64821;13.710;100.604;2024-02-26T02:16:10;15.18;;;10.70;;
76094;SDS011;64821;13.710;100.604;2024-02-26T02:17:14;13.88;;;9.48;;
76094;SDS011;64821;13.710;100.604;2024-02-26T02:18:20;12.47;;;9.40;;
76094;SDS011;64821;13.710;100.604;2024-02-26T02:19:24;12.30;;;9.63;;
76094;SDS011;64821;13.710;100.604;2024-02-26T02:20:33;14.73;;;10.75;;
76094;SDS011;64821;13.710;100.604;2024-02-26T02:21:37;13.15;;;9.75;;
76094;SDS011;64821;13.710;100.604;2024-02-26T02:22:41;12.38;;;9.35;;
76094;SDS011;64821;13.710;100.604;2024-02-26T02:23:45;12.53;;;9.60;;
76094;SDS011;64821;13.710;100.604;2024-02-26T02:24:51;14.55;;;10.02;;
76094;SDS011;64821;13.710;100.604;2024-02-26T02:25:56;15.15;;;10.13;;
76094;SDS011;64821;13.710;100.604;2024-02-26T02:27:00;12.93;;;10.10;;
76094;SDS011;64821;13.710;100.604;2024-02-26T02:28:05;14.93;;;9.40;;
76094;SDS011;64821;13.710;100.604;2024-02-26T02:29:09;12.47;;;9.37;;
76094;SDS011;64821;13.710;100.604;2024-02-26T02:30:14;14.52;;;10.50;;
76094;SDS011;64821;13.710;100.604;2024-02-26T02:31:18;12.75;;;9.43;;
76094;SDS011;64821;13.710;100.604;2024-02-26T02:32:23;12.68;;;9.48;;
76094;SDS011;64821;13.710;100.604;2024-02-26T02:33:28;16.65;;;11.20;;
76094;SDS011;64821;13.710;100.604;2024-02-26T02:34:32;13.00;;;9.93;;
76094;SDS011;64821;13.710;100.604;2024-02-26T02:35:39;14.43;;;10.98;;
76094;SDS011;64821;13.710;100.604;2024-02-26T02:36:51;13.38;;;9.98;;
76094;SDS011;64821;13.710;100.604;2024-02-26T02:37:56;13.68;;;10.13;;
76094;SDS011;64821;13.710;100.604;2024-02-26T02:39:01;12.75;;;9.82;;
76094;SDS011;64821;13.710;100.604;2024-02-26T02:40:05;15.83;;;10.63;;
76094;SDS011;64821;13.710;100.604;2024-02-26T02:41:10;17.63;;;12.10;;
76094;SDS011;64821;13.710;100.604;2024-02-26T02:42:14;14.23;;;11.30;;
76094;SDS011;64821;13.710;100.604;2024-02-26T02:43:18;13.77;;;11.15;;
76094;SDS011;64821;13.710;100.604;2024-02-26T02:44:23;13.75;;;10.13;;
76094;SDS011;64821;13.710;100.604;2024-02-26T02:45:27;14.47;;;11.00;;
76094;SDS011;64821;13.710;100.604;2024-02-26T02:46:31;15.27;;;11.02;;
76094;SDS011;64821;13.710;100.604;2024-02-26T02:47:36;13.55;;;10.38;;
76094;SDS011;64821;13.710;100.604;2024-02-26T02:48:41;14.18;;;11.30;;
76094;SDS011;64821;13.710;100.604;2024-02-26T02:49:45;15.93;;;11.73;;
76094;SDS011;64821;13.710;100.604;2024-02-26T02:50:52;14.97;;;11.13;;
76094;SDS011;64821;13.710;100.604;2024-02-26T02:51:56;15.73;;;12.40;;
76094;SDS011;64821;13.710;100.604;2024-02-26T02:53:00;14.10;;;10.88;;
76094;SDS011;64821;13.710;100.604;2024-02-26T02:54:04;13.45;;;11.15;;
76094;SDS011;64821;13.710;100.604;2024-02-26T02:55:08;15.73;;;11.73;;
76094;SDS011;64821;13.710;100.604;2024-02-26T02:56:12;13.73;;;11.03;;
76094;SDS011;64821;13.710;100.604;2024-02-26T02:57:16;14.10;;;11.68;;
76094;SDS011;64821;13.710;100.604;2024-02-26T02:58:24;13.82;;;11.32;;
76094;SDS011;64821;13.710;100.604;2024-02-26T02:59:28;13.75;;;11.02;;
76094;SDS011;64821;13.710;100.604;2024-02-26T03:00:32;16.02;;;12.27;;
76094;SDS011;64821;13.710;100.604;2024-02-26T03:01:36;13.70;;;10.77;;
76094;SDS011;64821;13.710;100.604;2024-02-26T03:02:40;15.93;;;11.60;;
76094;SDS011;64821;13.710;100.604;2024-02-26T03:03:44;14.07;;;10.93;;
76094;SDS011;64821;13.710;100.604;2024-02-26T03:04:48;15.90;;;12.73;;
76094;SDS011;64821;13.710;100.604;2024-02-26T03:05:54;16.90;;;12.00;;
76094;SDS011;64821;13.710;100.604;2024-02-26T03:06:59;14.80;;;11.57;;
76094;SDS011;64821;13.710;100.604;2024-02-26T03:08:04;15.85;;;12.70;;
76094;SDS011;64821;13.710;100.604;2024-02-26T03:09:08;16.02;;;12.63;;
76094;SDS011;64821;13.710;100.604;2024-02-26T03:10:12;14.82;;;11.82;;
76094;SDS011;64821;13.710;100.604;2024-02-26T03:11:16;16.92;;;12.10;;
76094;SDS011;64821;13.710;100.604;2024-02-26T03:12:21;14.57;;;11.37;;
76094;SDS011;64821;13.710;100.604;2024-02-26T03:13:25;15.10;;;11.48;;
76094;SDS011;64821;13.710;100.604;2024-02-26T03:14:29;12.60;;;10.30;;
76094;SDS011;64821;13.710;100.604;2024-02-26T03:15:33;16.00;;;11.63;;
76094;SDS011;64821;13.710;100.604;2024-02-26T03:16:37;14.52;;;11.68;;
76094;SDS011;64821;13.710;100.604;2024-02-26T03:17:41;15.00;;;11.87;;
76094;SDS011;64821;13.710;100.604;2024-02-26T03:18:45;16.15;;;13.05;;
76094;SDS011;64821;13.710;100.604;2024-02-26T03:19:50;15.70;;;12.13;;
76094;SDS011;64821;13.710;100.604;2024-02-26T03:20:56;16.70;;;11.55;;
76094;SDS011;64821;13.710;100.604;2024-02-26T03:22:01;17.60;;;11.55;;
76094;SDS011;64821;13.710;100.604;2024-02-26T03:23:05;14.03;;;11.73;;
76094;SDS011;64821;13.710;100.604;2024-02-26T03:24:09;15.73;;;12.32;;
76094;SDS011;64821;13.710;100.604;2024-02-26T03:25:13;14.10;;;11.55;;
76094;SDS011;64821;13.710;100.604;2024-02-26T03:26:17;15.38;;;11.75;;
76094;SDS011;64821;13.710;100.604;2024-02-26T03:27:21;16.65;;;12.02;;
76094;SDS011;64821;13.710;100.604;2024-02-26T03:28:26;16.33;;;11.97;;
76094;SDS011;64821;13.710;100.604;2024-02-26T03:29:30;14.13;;;11.15;;
76094;SDS011;64821;13.710;100.604;2024-02-26T03:30:34;18.60;;;12.40;;
76094;SDS011;64821;13.710;100.604;2024-02-26T03:31:38;15.90;;;12.13;;
76094;SDS011;64821;13.710;100.604;2024-02-26T03:32:42;14.95;;;11.85;;
76094;SDS011;64821;13.710;100.604;2024-02-26T03:33:46;14.47;;;11.97;;
76094;SDS011;64821;13.710;100.604;2024-02-26T03:34:51;17.02;;;12.80;;
76094;SDS011;64821;13.710;100.604;2024-02-26T03:35:57;15.85;;;12.57;;
76094;SDS011;64821;13.710;100.604;2024-02-26T03:37:02;14.52;;;11.38;;
76094;SDS011;64821;13.710;100.604;2024-02-26T03:38:06;18.85;;;13.63;;
76094;SDS011;64821;13.710;100.604;2024-02-26T03:39:10;14.30;;;11.57;;
76094;SDS011;64821;13.710;100.604;2024-02-26T03:40:15;15.13;;;12.27;;
76094;SDS011;64821;13.710;100.604;2024-02-26T03:41:19;16.13;;;12.85;;
76094;SDS011;64821;13.710;100.604;2024-02-26T03:42:23;18.77;;;14.13;;
76094;SDS011;64821;13.710;100.604;2024-02-26T03:43:27;15.48;;;12.57;;
76094;SDS011;64821;13.710;100.604;2024-02-26T03:44:31;16.77;;;13.40;;
76094;SDS011;64821;13.710;100.604;2024-02-26T03:45:35;17.30;;;13.63;;
76094;SDS011;64821;13.710;100.604;2024-02-26T03:46:39;17.38;;;14.05;;
76094;SDS011;64821;13.710;100.604;2024-02-26T03:47:43;17.58;;;13.68;;
76094;SDS011;64821;13.710;100.604;2024-02-26T03:48:48;16.60;;;13.70;;
76094;SDS011;64821;13.710;100.604;2024-02-26T03:49:52;16.87;;;12.97;;
76094;SDS011;64821;13.710;100.604;2024-02-26T03:50:58;17.35;;;14.27;;
76094;SDS011;64821;13.710;100.604;2024-02-26T03:52:02;15.30;;;12.60;;
76094;SDS011;64821;13.710;100.604;2024-02-26T03:53:06;15.75;;;12.60;;
76094;SDS011;64821;13.710;100.604;2024-02-26T03:54:15;17.30;;;13.02;;
76094;SDS011;64821;13.710;100.604;2024-02-26T03:55:19;16.10;;;13.63;;
76094;SDS011;64821;13.710;100.604;2024-02-26T03:56:24;18.55;;;13.90;;
76094;SDS011;64821;13.710;100.604;2024-02-26T03:57:28;15.48;;;12.90;;
76094;SDS011;64821;13.710;100.604;2024-02-26T03:58:32;18.27;;;13.40;;
76094;SDS011;64821;13.710;100.604;2024-02-26T03:59:36;16.17;;;13.25;;
76094;SDS011;64821;13.710;100.604;2024-02-26T04:00:42;17.83;;;14.40;;
76094;SDS011;64821;13.710;100.604;2024-02-26T04:01:50;16.70;;;14.35;;
76094;SDS011;64821;13.710;100.604;2024-02-26T04:02:54;15.82;;;13.38;;
76094;SDS011;64821;13.710;100.604;2024-02-26T04:03:58;17.23;;;14.20;;
76094;SDS011;64821;13.710;100.604;2024-02-26T04:05:02;17.98;;;13.88;;
76094;SDS011;64821;13.710;100.604;2024-02-26T04:06:10;15.17;;;12.43;;
76094;SDS011;64821;13.710;100.604;2024-02-26T04:07:15;17.48;;;14.27;;
76094;SDS011;64821;13.710;100.604;2024-02-26T04:08:19;18.50;;;13.57;;
76094;SDS011;64821;13.710;100.604;2024-02-26T04:09:23;16.58;;;13.80;;
76094;SDS011;64821;13.710;100.604;2024-02-26T04:10:27;19.70;;;14.75;;
76094;SDS011;64821;13.710;100.604;2024-02-26T04:11:31;20.63;;;14.20;;
76094;SDS011;64821;13.710;100.604;2024-02-26T04:12:36;20.27;;;15.65;;
76094;SDS011;64821;13.710;100.604;2024-02-26T04:13:42;17.85;;;14.02;;
76094;SDS011;64821;13.710;100.604;2024-02-26T04:14:46;17.15;;;14.80;;
76094;SDS011;64821;13.710;100.604;2024-02-26T04:15:50;17.52;;;14.40;;
76094;SDS011;64821;13.710;100.604;2024-02-26T04:16:54;19.50;;;14.63;;
76094;SDS011;64821;13.710;100.604;2024-02-26T04:17:59;18.13;;;13.98;;
76094;SDS011;64821;13.710;100.604;2024-02-26T04:19:03;18.25;;;15.15;;
76094;SDS011;64821;13.710;100.604;2024-02-26T04:20:07;18.92;;;15.20;;
76094;SDS011;64821;13.710;100.604;2024-02-26T04:21:17;17.25;;;14.65;;
76094;SDS011;64821;13.710;100.604;2024-02-26T04:22:21;19.67;;;14.90;;
76094;SDS011;64821;13.710;100.604;2024-02-26T04:23:25;19.83;;;16.15;;
76094;SDS011;64821;13.710;100.604;2024-02-26T04:24:30;21.45;;;17.13;;
76094;SDS011;64821;13.710;100.604;2024-02-26T04:25:34;18.80;;;16.00;;
76094;SDS011;64821;13.710;100.604;2024-02-26T04:26:38;19.33;;;16.23;;
76094;SDS011;64821;13.710;100.604;2024-02-26T04:27:42;21.03;;;17.97;;
76094;SDS011;64821;13.710;100.604;2024-02-26T04:28:46;21.20;;;17.35;;
76094;SDS011;64821;13.710;100.604;2024-02-26T04:29:50;19.83;;;17.52;;
76094;SDS011;64821;13.710;100.604;2024-02-26T04:30:55;19.67;;;16.90;;
76094;SDS011;64821;13.710;100.604;2024-02-26T04:31:59;18.65;;;16.10;;
76094;SDS011;64821;13.710;100.604;2024-02-26T04:33:03;19.63;;;16.50;;
76094;SDS011;64821;13.710;100.604;2024-02-26T04:34:09;20.15;;;16.08;;
76094;SDS011;64821;13.710;100.604;2024-02-26T04:35:16;20.48;;;17.85;;
76094;SDS011;64821;13.710;100.604;2024-02-26T04:36:21;20.38;;;17.30;;
76094;SDS011;64821;13.710;100.604;2024-02-26T04:37:25;19.90;;;15.70;;
76094;SDS011;64821;13.710;100.604;2024-02-26T04:38:30;19.13;;;16.60;;
76094;SDS011;64821;13.710;100.604;2024-02-26T04:39:34;19.08;;;16.15;;
76094;SDS011;64821;13.710;100.604;2024-02-26T04:40:38;18.95;;;16.13;;
76094;SDS011;64821;13.710;100.604;2024-02-26T04:41:42;20.45;;;17.55;;
76094;SDS011;64821;13.710;100.604;2024-02-26T04:42:46;20.85;;;17.15;;
76094;SDS011;64821;13.710;100.604;2024-02-26T04:43:50;20.63;;;17.53;;
76094;SDS011;64821;13.710;100.604;2024-02-26T04:44:54;20.52;;;17.17;;
76094;SDS011;64821;13.710;100.604;2024-02-26T04:45:59;20.48;;;17.58;;
76094;SDS011;64821;13.710;100.604;2024-02-26T04:47:03;19.15;;;16.52;;
76094;SDS011;64821;13.710;100.604;2024-02-26T04:48:07;20.27;;;16.27;;
76094;SDS011;64821;13.710;100.604;2024-02-26T04:49:12;18.00;;;15.90;;
76094;SDS011;64821;13.710;100.604;2024-02-26T04:50:16;21.95;;;16.95;;
76094;SDS011;64821;13.710;100.604;2024-02-26T04:51:22;19.75;;;16.85;;
76094;SDS011;64821;13.710;100.604;2024-02-26T04:52:26;21.23;;;17.23;;
76094;SDS011;64821;13.710;100.604;2024-02-26T04:53:30;20.05;;;16.60;;
76094;SDS011;64821;13.710;100.604;2024-02-26T04:54:34;23.07;;;18.43;;
76094;SDS011;64821;13.710;100.604;2024-02-26T04:55:39;22.40;;;19.42;;
76094;SDS011;64821;13.710;100.604;2024-02-26T04:56:43;19.48;;;16.42;;
76094;SDS011;64821;13.710;100.604;2024-02-26T04:57:47;21.33;;;18.42;;
76094;SDS011;64821;13.710;100.604;2024-02-26T04:58:51;22.90;;;18.10;;
76094;SDS011;64821;13.710;100.604;2024-02-26T04:59:55;18.37;;;16.17;;
76094;SDS011;64821;13.710;100.604;2024-02-26T05:00:59;20.58;;;17.67;;
76094;SDS011;64821;13.710;100.604;2024-02-26T05:02:03;19.38;;;16.20;;
76094;SDS011;64821;13.710;100.604;2024-02-26T05:03:08;20.40;;;17.90;;
76094;SDS011;64821;13.710;100.604;2024-02-26T05:04:12;22.08;;;17.98;;
76094;SDS011;64821;13.710;100.604;2024-02-26T05:05:16;21.90;;;18.27;;
76094;SDS011;64821;13.710;100.604;2024-02-26T05:06:22;22.13;;;18.35;;
76094;SDS011;64821;13.710;100.604;2024-02-26T05:07:26;21.88;;;18.40;;
76094;SDS011;64821;13.710;100.604;2024-02-26T05:08:31;21.90;;;17.83;;
76094;SDS011;64821;13.710;100.604;2024-02-26T05:09:35;21.70;;;19.40;;
76094;SDS011;64821;13.710;100.604;2024-02-26T05:10:39;20.33;;;18.03;;
76094;SDS011;64821;13.710;100.604;2024-02-26T05:11:43;22.10;;;19.08;;
76094;SDS011;64821;13.710;100.604;2024-02-26T05:12:47;20.52;;;18.33;;
76094;SDS011;64821;13.710;100.604;2024-02-26T05:13:51;21.08;;;18.58;;
76094;SDS011;64821;13.710;100.604;2024-02-26T05:14:55;22.15;;;18.95;;
76094;SDS011;64821;13.710;100.604;2024-02-26T05:15:59;23.73;;;19.20;;
76094;SDS011;64821;13.710;100.604;2024-02-26T05:17:03;22.50;;;18.67;;
76094;SDS011;64821;13.710;100.604;2024-02-26T05:18:07;23.00;;;18.38;;
76094;SDS011;64821;13.710;100.604;2024-02-26T05:19:12;22.40;;;19.67;;
76094;SDS011;64821;13.710;100.604;2024-02-26T05:20:16;20.98;;;18.20;;
76094;SDS011;64821;13.710;100.604;2024-02-26T05:21:22;23.53;;;19.97;;
76094;SDS011;64821;13.710;100.604;2024-02-26T05:22:27;22.55;;;19.05;;
76094;SDS011;64821;13.710;100.604;2024-02-26T05:23:31;21.67;;;19.42;;
76094;SDS011;64821;13.710;100.604;2024-02-26T05:24:37;22.73;;;19.13;;
76094;SDS011;64821;13.710;100.604;2024-02-26T05:25:41;22.95;;;18.92;;
76094;SDS011;64821;13.710;100.604;2024-02-26T05:26:45;20.30;;;17.37;;
76094;SDS011;64821;13.710;100.604;2024-02-26T05:27:49;19.77;;;17.67;;
76094;SDS011;64821;13.710;100.604;2024-02-26T05:28:53;21.08;;;18.33;;
76094;SDS011;64821;13.710;100.604;2024-02-26T05:29:57;21.92;;;17.42;;
76094;SDS011;64821;13.710;100.604;2024-02-26T05:31:01;20.88;;;17.45;;
76094;SDS011;64821;13.710;100.604;2024-02-26T05:32:06;19.90;;;17.17;;
76094;SDS011;64821;13.710;100.604;2024-02-26T05:33:10;19.90;;;16.25;;
76094;SDS011;64821;13.710;100.604;2024-02-26T05:34:19;21.30;;;17.55;;
76094;SDS011;64821;13.710;100.604;2024-02-26T05:35:23;20.23;;;18.00;;
76094;SDS011;64821;13.710;100.604;2024-02-26T05:36:30;21.10;;;17.45;;
76094;SDS011;64821;13.710;100.604;2024-02-26T05:37:34;20.43;;;17.33;;
76094;SDS011;64821;13.710;100.604;2024-02-26T05:38:38;19.85;;;17.50;;
76094;SDS011;64821;13.710;100.604;2024-02-26T05:39:42;20.70;;;18.45;;
76094;SDS011;64821;13.710;100.604;2024-02-26T05:42:08;19.23;;;16.83;;
76094;SDS011;64821;13.710;100.604;2024-02-26T05:43:12;18.97;;;16.83;;
76094;SDS011;64821;13.710;100.604;2024-02-26T05:44:16;23.30;;;19.67;;
76094;SDS011;64821;13.710;100.604;2024-02-26T05:45:20;22.25;;;18.40;;
76094;SDS011;64821;13.710;100.604;2024-02-26T05:46:24;21.75;;;18.60;;
76094;SDS011;64821;13.710;100.604;2024-02-26T05:49:19;23.47;;;18.90;;
76094;SDS011;64821;13.710;100.604;2024-02-26T05:50:25;21.25;;;18.77;;
76094;SDS011;64821;13.710;100.604;2024-02-26T05:51:31;22.17;;;19.77;;
76094;SDS011;64821;13.710;100.604;2024-02-26T05:52:35;21.73;;;18.35;;
76094;SDS011;64821;13.710;100.604;2024-02-26T05:53:40;19.45;;;17.13;;
76094;SDS011;64821;13.710;100.604;2024-02-26T05:54:44;19.53;;;16.13;;
76094;SDS011;64821;13.710;100.604;2024-02-26T05:55:49;21.60;;;19.17;;
76094;SDS011;64821;13.710;100.604;2024-02-26T05:56:53;21.55;;;18.73;;
76094;SDS011;64821;13.710;100.604;2024-02-26T05:57:57;23.35;;;20.23;;
76094;SDS011;64821;13.710;100.604;2024-02-26T05:59:02;22.60;;;18.92;;
76094;SDS011;64821;13.710;100.604;2024-02-26T06:00:06;23.83;;;21.33;;
76094;SDS011;64821;13.710;100.604;2024-02-26T06:01:15;23.48;;;20.77;;
76094;SDS011;64821;13.710;100.604;2024-02-26T06:02:20;24.52;;;20.70;;
76094;SDS011;64821;13.710;100.604;2024-02-26T06:03:24;22.48;;;19.00;;
76094;SDS011;64821;13.710;100.604;2024-02-26T06:04:28;21.92;;;19.02;;
76094;SDS011;64821;13.710;100.604;2024-02-26T06:05:32;21.20;;;18.90;;
76094;SDS011;64821;13.710;100.604;2024-02-26T06:06:38;23.45;;;19.70;;
76094;SDS011;64821;13.710;100.604;2024-02-26T06:07:45;21.50;;;18.42;;
76094;SDS011;64821;13.710;100.604;2024-02-26T06:08:49;22.10;;;19.17;;
76094;SDS011;64821;13.710;100.604;2024-02-26T06:09:53;22.30;;;19.40;;
76094;SDS011;64821;13.710;100.604;2024-02-26T06:10:58;22.63;;;19.20;;
76094;SDS011;64821;13.710;100.604;2024-02-26T06:12:07;23.05;;;20.55;;